sensor_id;sensor_type;location;lat;lon;timestamp;pressure;altitude;pressure_sealevel;temperature;humidity
9187;BME280;7273;48.902;9.410;2023-12-20T00:00:47;98053.91;;;6.08;83.77
9187;BME280;7273;48.902;9.410;2023-12-20T00:03:13;98046.41;;;6.10;83.89
9187;BME280;7273;48.902;9.410;2023-12-20T00:05:38;98043.47;;;6.12;84.42
9187;BME280;7273;48.902;9.410;2023-12-20T00:08:06;98045.09;;;6.13;84.18
9187;BME280;7273;48.902;9.410;2023-12-20T00:10:32;98048.03;;;6.11;84.86
9187;BME280;7273;48.902;9.410;2023-12-20T00:12:57;98049.09;;;6.10;84.13
9187;BME280;7273;48.902;9.410;2023-12-20T00:15:23;98043.72;;;6.10;84.44
9187;BME280;7273;48.902;9.410;2023-12-20T00:17:48;98046.41;;;6.10;85.07
9187;BME280;7273;48.902;9.410;2023-12-20T00:20:14;98046.88;;;6.07;84.92
9187;BME280;7273;48.902;9.410;2023-12-20T00:22:40;98038.84;;;6.07;85.41
9187;BME280;7273;48.902;9.410;2023-12-20T00:25:06;98031.53;;;6.03;85.86
9187;BME280;7273;48.902;9.410;2023-12-20T00:27:32;98024.56;;;6.02;85.85
9187;BME280;7273;48.902;9.410;2023-12-20T00:29:58;98026.91;;;5.98;85.80
9187;BME280;7273;48.902;9.410;2023-12-20T00:32:23;98027.41;;;5.95;86.24
9187;BME280;7273;48.902;9.410;2023-12-20T00:34:49;98025.84;;;5.99;86.29
9187;BME280;7273;48.902;9.410;2023-12-20T00:37:15;98026.66;;;6.00;86.00
9187;BME280;7273;48.902;9.410;2023-12-20T00:39:41;98020.22;;;6.01;86.07
9187;BME280;7273;48.902;9.410;2023-12-20T00:42:07;98029.03;;;5.96;85.93
9187;BME280;7273;48.902;9.410;2023-12-20T00:44:33;98026.03;;;5.93;86.49
9187;BME280;7273;48.902;9.410;2023-12-20T00:46:58;98019.28;;;5.90;86.94
9187;BME280;7273;48.902;9.410;2023-12-20T00:49:24;98021.97;;;5.90;86.85
9187;BME280;7273;48.902;9.410;2023-12-20T00:51:50;98016.34;;;5.92;87.14
9187;BME280;7273;48.902;9.410;2023-12-20T00:54:17;98013.09;;;5.90;87.16
9187;BME280;7273;48.902;9.410;2023-12-20T00:56:43;98008.47;;;5.85;87.20
9187;BME280;7273;48.902;9.410;2023-12-20T00:59:09;98011.75;;;5.87;87.50
9187;BME280;7273;48.902;9.410;2023-12-20T01:01:35;98016.28;;;5.87;87.51
9187;BME280;7273;48.902;9.410;2023-12-20T01:04:00;98019.63;;;5.77;87.67
9187;BME280;7273;48.902;9.410;2023-12-20T01:06:26;98033.03;;;5.77;87.95
9187;BME280;7273;48.902;9.410;2023-12-20T01:08:51;98024.91;;;5.72;87.98
9187;BME280;7273;48.902;9.410;2023-12-20T01:11:17;98021.06;;;5.68;88.12
9187;BME280;7273;48.902;9.410;2023-12-20T01:13:43;98021.66;;;5.70;88.02
9187;BME280;7273;48.902;9.410;2023-12-20T01:16:12;98032.88;;;5.67;88.45
9187;BME280;7273;48.902;9.410;2023-12-20T01:18:38;98020.22;;;5.63;88.61
9187;BME280;7273;48.902;9.410;2023-12-20T01:21:04;98022.88;;;5.63;88.38
9187;BME280;7273;48.902;9.410;2023-12-20T01:23:30;98033.38;;;5.64;88.79
9187;BME280;7273;48.902;9.410;2023-12-20T01:25:56;98030.59;;;5.59;88.82
9187;BME280;7273;48.902;9.410;2023-12-20T01:28:22;98032.47;;;5.59;88.65
9187;BME280;7273;48.902;9.410;2023-12-20T01:30:48;98030.84;;;5.58;89.14
9187;BME280;7273;48.902;9.410;2023-12-20T01:33:13;98040.19;;;5.55;89.08
9187;BME280;7273;48.902;9.410;2023-12-20T01:35:39;98034.53;;;5.52;89.05
9187;BME280;7273;48.902;9.410;2023-12-20T01:38:05;98034.75;;;5.50;89.53
9187;BME280;7273;48.902;9.410;2023-12-20T01:40:30;98035.00;;;5.48;89.23
9187;BME280;7273;48.902;9.410;2023-12-20T01:43:06;98034.66;;;5.45;89.37
9187;BME280;7273;48.902;9.410;2023-12-20T01:45:32;98027.59;;;5.39;89.45
9187;BME280;7273;48.902;9.410;2023-12-20T01:47:58;98036.22;;;5.41;89.55
9187;BME280;7273;48.902;9.410;2023-12-20T01:50:24;98048.03;;;5.40;89.60
9187;BME280;7273;48.902;9.410;2023-12-20T01:52:50;98038.81;;;5.36;89.99
9187;BME280;7273;48.902;9.410;2023-12-20T01:55:19;98044.19;;;5.36;89.89
9187;BME280;7273;48.902;9.410;2023-12-20T01:57:45;98042.56;;;5.35;89.78
9187;BME280;7273;48.902;9.410;2023-12-20T02:00:13;98039.31;;;5.33;89.87
9187;BME280;7273;48.902;9.410;2023-12-20T02:02:40;98042.25;;;5.31;90.34
9187;BME280;7273;48.902;9.410;2023-12-20T02:05:06;98036.88;;;5.31;90.02
9187;BME280;7273;48.902;9.410;2023-12-20T02:07:32;98041.41;;;5.31;90.14
9187;BME280;7273;48.902;9.410;2023-12-20T02:10:01;98030.94;;;5.29;90.45
9187;BME280;7273;48.902;9.410;2023-12-20T02:12:27;98039.56;;;5.31;90.72
9187;BME280;7273;48.902;9.410;2023-12-20T02:14:53;98029.88;;;5.30;90.90
9187;BME280;7273;48.902;9.410;2023-12-20T02:17:20;98030.69;;;5.31;90.70
9187;BME280;7273;48.902;9.410;2023-12-20T02:19:45;98028.84;;;5.31;90.79
9187;BME280;7273;48.902;9.410;2023-12-20T02:22:12;98020.78;;;5.31;90.57
9187;BME280;7273;48.902;9.410;2023-12-20T02:24:38;98029.63;;;5.32;90.95
9187;BME280;7273;48.902;9.410;2023-12-20T02:27:05;98028.84;;;5.31;90.19
9187;BME280;7273;48.902;9.410;2023-12-20T02:29:32;98028.00;;;5.31;90.38
9187;BME280;7273;48.902;9.410;2023-12-20T02:31:58;98027.19;;;5.30;90.54
9187;BME280;7273;48.902;9.410;2023-12-20T02:34:23;98031.28;;;5.33;90.74
9187;BME280;7273;48.902;9.410;2023-12-20T02:36:49;98027.19;;;5.30;90.69
9187;BME280;7273;48.902;9.410;2023-12-20T02:39:14;98028.25;;;5.29;90.50
9187;BME280;7273;48.902;9.410;2023-12-20T02:41:39;98032.81;;;5.29;90.93
9187;BME280;7273;48.902;9.410;2023-12-20T02:44:05;98032.25;;;5.27;91.02
9187;BME280;7273;48.902;9.410;2023-12-20T02:46:30;98034.13;;;5.26;91.39
9187;BME280;7273;48.902;9.410;2023-12-20T02:48:55;98039.47;;;5.26;91.43
9187;BME280;7273;48.902;9.410;2023-12-20T02:51:21;98033.88;;;5.28;91.45
9187;BME280;7273;48.902;9.410;2023-12-20T02:53:46;98038.16;;;5.29;91.83
9187;BME280;7273;48.902;9.410;2023-12-20T02:56:11;98031.28;;;5.33;91.66
9187;BME280;7273;48.902;9.410;2023-12-20T02:58:37;98042.56;;;5.35;91.65
9187;BME280;7273;48.902;9.410;2023-12-20T03:01:28;98033.13;;;5.32;91.33
9187;BME280;7273;48.902;9.410;2023-12-20T03:03:54;98034.78;;;5.33;91.78
9187;BME280;7273;48.902;9.410;2023-12-20T03:06:19;98040.59;;;5.30;91.94
9187;BME280;7273;48.902;9.410;2023-12-20T03:08:45;98036.06;;;5.31;91.69
9187;BME280;7273;48.902;9.410;2023-12-20T03:11:11;98034.44;;;5.30;91.62
9187;BME280;7273;48.902;9.410;2023-12-20T03:13:36;98040.06;;;5.28;92.12
9187;BME280;7273;48.902;9.410;2023-12-20T03:16:08;98040.84;;;5.29;92.42
9187;BME280;7273;48.902;9.410;2023-12-20T03:18:33;98043.19;;;5.25;92.48
9187;BME280;7273;48.902;9.410;2023-12-20T03:20:59;98043.19;;;5.25;92.55
9187;BME280;7273;48.902;9.410;2023-12-20T03:23:24;98050.34;;;5.20;93.66
9187;BME280;7273;48.902;9.410;2023-12-20T03:25:49;98051.97;;;5.21;94.60
9187;BME280;7273;48.902;9.410;2023-12-20T03:28:15;98060.84;;;5.21;94.96
9187;BME280;7273;48.902;9.410;2023-12-20T03:30:41;98054.66;;;5.21;95.44
9187;BME280;7273;48.902;9.410;2023-12-20T03:33:06;98057.09;;;5.22;95.30
9187;BME280;7273;48.902;9.410;2023-12-20T03:35:32;98060.59;;;5.23;94.58
9187;BME280;7273;48.902;9.410;2023-12-20T03:37:58;98056.84;;;5.24;94.42
9187;BME280;7273;48.902;9.410;2023-12-20T03:40:25;98056.53;;;5.20;94.96
9187;BME280;7273;48.902;9.410;2023-12-20T03:42:50;98050.59;;;5.18;95.39
9187;BME280;7273;48.902;9.410;2023-12-20T03:45:16;98058.88;;;5.17;96.19
9187;BME280;7273;48.902;9.410;2023-12-20T03:47:41;98055.38;;;5.16;95.85
9187;BME280;7273;48.902;9.410;2023-12-20T03:50:07;98059.22;;;5.20;95.41
9187;BME280;7273;48.902;9.410;2023-12-20T03:52:32;98063.75;;;5.20;94.78
9187;BME280;7273;48.902;9.410;2023-12-20T03:54:58;98058.41;;;5.20;94.93
9187;BME280;7273;48.902;9.410;2023-12-20T03:57:23;98063.09;;;5.13;95.42
9187;BME280;7273;48.902;9.410;2023-12-20T03:59:48;98058.56;;;5.13;96.01
9187;BME280;7273;48.902;9.410;2023-12-20T04:02:14;98055.63;;;5.15;95.64
9187;BME280;7273;48.902;9.410;2023-12-20T04:04:39;98055.06;;;5.13;95.58
9187;BME280;7273;48.902;9.410;2023-12-20T04:07:04;98060.41;;;5.13;95.59
9187;BME280;7273;48.902;9.410;2023-12-20T04:09:30;98060.91;;;5.10;96.17
9187;BME280;7273;48.902;9.410;2023-12-20T04:11:55;98062.44;;;5.06;96.81
9187;BME280;7273;48.902;9.410;2023-12-20T04:14:21;98059.75;;;5.06;97.23
9187;BME280;7273;48.902;9.410;2023-12-20T04:16:46;98067.53;;;5.07;97.34
9187;BME280;7273;48.902;9.410;2023-12-20T04:19:11;98056.50;;;5.04;97.24
9187;BME280;7273;48.902;9.410;2023-12-20T04:21:37;98056.50;;;5.04;97.40
9187;BME280;7273;48.902;9.410;2023-12-20T04:24:02;98061.28;;;5.02;97.81
9187;BME280;7273;48.902;9.410;2023-12-20T04:26:28;98070.69;;;5.04;98.43
9187;BME280;7273;48.902;9.410;2023-12-20T04:28:54;98066.91;;;5.00;98.42
9187;BME280;7273;48.902;9.410;2023-12-20T04:31:20;98072.50;;;4.99;98.32
9187;BME280;7273;48.902;9.410;2023-12-20T04:33:45;98077.53;;;4.95;98.66
9187;BME280;7273;48.902;9.410;2023-12-20T04:36:10;98085.06;;;4.98;98.51
9187;BME280;7273;48.902;9.410;2023-12-20T04:38:36;98084.75;;;4.95;98.49
9187;BME280;7273;48.902;9.410;2023-12-20T04:41:01;98084.75;;;4.95;98.68
9187;BME280;7273;48.902;9.410;2023-12-20T04:43:27;98086.13;;;4.97;98.55
9187;BME280;7273;48.902;9.410;2023-12-20T04:45:53;98101.41;;;4.97;97.87
9187;BME280;7273;48.902;9.410;2023-12-20T04:48:18;98095.78;;;4.98;97.46
9187;BME280;7273;48.902;9.410;2023-12-20T04:50:44;98096.28;;;4.95;97.80
9187;BME280;7273;48.902;9.410;2023-12-20T04:53:09;98089.84;;;4.96;98.31
9187;BME280;7273;48.902;9.410;2023-12-20T04:55:35;98089.63;;;4.98;97.66
9187;BME280;7273;48.902;9.410;2023-12-20T04:58:00;98098.13;;;4.95;97.90
9187;BME280;7273;48.902;9.410;2023-12-20T05:00:26;98091.50;;;4.97;97.96
9187;BME280;7273;48.902;9.410;2023-12-20T05:02:51;98094.97;;;4.98;97.96
9187;BME280;7273;48.902;9.410;2023-12-20T05:05:17;98094.72;;;4.99;97.46
9187;BME280;7273;48.902;9.410;2023-12-20T05:07:43;98101.97;;;4.99;97.77
9187;BME280;7273;48.902;9.410;2023-12-20T05:10:09;98099.28;;;4.99;97.50
9187;BME280;7273;48.902;9.410;2023-12-20T05:12:34;98093.13;;;4.98;97.23
9187;BME280;7273;48.902;9.410;2023-12-20T05:15:00;98090.19;;;5.00;97.33
9187;BME280;7273;48.902;9.410;2023-12-20T05:17:25;98099.28;;;4.99;97.77
9187;BME280;7273;48.902;9.410;2023-12-20T05:19:51;98109.53;;;5.02;97.54
9187;BME280;7273;48.902;9.410;2023-12-20T05:22:17;98108.47;;;5.03;97.81
9187;BME280;7273;48.902;9.410;2023-12-20T05:24:43;98108.72;;;5.01;97.79
9187;BME280;7273;48.902;9.410;2023-12-20T05:27:09;98111.97;;;5.03;98.26
9187;BME280;7273;48.902;9.410;2023-12-20T05:29:34;98109.63;;;5.07;98.12
9187;BME280;7273;48.902;9.410;2023-12-20T05:31:59;98111.25;;;5.08;97.69
9187;BME280;7273;48.902;9.410;2023-12-20T05:34:25;98121.13;;;5.07;98.07
9187;BME280;7273;48.902;9.410;2023-12-20T05:36:50;98120.09;;;5.08;97.75
9187;BME280;7273;48.902;9.410;2023-12-20T05:39:16;98123.38;;;5.10;97.87
9187;BME280;7273;48.902;9.410;2023-12-20T05:41:41;98118.56;;;5.12;97.41
9187;BME280;7273;48.902;9.410;2023-12-20T05:44:07;98123.69;;;5.14;96.79
9187;BME280;7273;48.902;9.410;2023-12-20T05:46:32;98126.38;;;5.14;96.60
9187;BME280;7273;48.902;9.410;2023-12-20T05:48:58;98127.41;;;5.13;96.96
9187;BME280;7273;48.902;9.410;2023-12-20T05:51:23;98133.94;;;5.17;96.65
9187;BME280;7273;48.902;9.410;2023-12-20T05:53:48;98141.16;;;5.16;96.27
9187;BME280;7273;48.902;9.410;2023-12-20T05:56:15;98146.28;;;5.18;96.36
9187;BME280;7273;48.902;9.410;2023-12-20T05:58:41;98151.41;;;5.19;96.74
9187;BME280;7273;48.902;9.410;2023-12-20T06:01:06;98145.78;;;5.21;96.39
9187;BME280;7273;48.902;9.410;2023-12-20T06:03:33;98157.91;;;5.23;95.65
9187;BME280;7273;48.902;9.410;2023-12-20T06:05:59;98167.22;;;5.21;96.49
9187;BME280;7273;48.902;9.410;2023-12-20T06:08:25;98170.75;;;5.21;96.41
9187;BME280;7273;48.902;9.410;2023-12-20T06:10:51;98166.19;;;5.22;97.27
9187;BME280;7273;48.902;9.410;2023-12-20T06:13:16;98168.41;;;5.25;97.72
9187;BME280;7273;48.902;9.410;2023-12-20T06:15:42;98179.47;;;5.28;97.42
9187;BME280;7273;48.902;9.410;2023-12-20T06:18:07;98172.69;;;5.26;97.14
9187;BME280;7273;48.902;9.410;2023-12-20T06:20:33;98173.50;;;5.26;97.26
9187;BME280;7273;48.902;9.410;2023-12-20T06:22:58;98177.81;;;5.27;98.02
9187;BME280;7273;48.902;9.410;2023-12-20T06:25:24;98172.78;;;5.31;97.46
9187;BME280;7273;48.902;9.410;2023-12-20T06:27:49;98171.97;;;5.30;96.45
9187;BME280;7273;48.902;9.410;2023-12-20T06:30:15;98177.34;;;5.30;97.01
9187;BME280;7273;48.902;9.410;2023-12-20T06:32:41;98181.91;;;5.30;97.47
9187;BME280;7273;48.902;9.410;2023-12-20T06:35:08;98176.28;;;5.31;97.94
9187;BME280;7273;48.902;9.410;2023-12-20T06:37:33;98181.66;;;5.31;98.41
9187;BME280;7273;48.902;9.410;2023-12-20T06:39:59;98181.16;;;5.34;98.22
9187;BME280;7273;48.902;9.410;2023-12-20T06:42:24;98187.91;;;5.37;98.36
9187;BME280;7273;48.902;9.410;2023-12-20T06:44:49;98183.84;;;5.34;98.24
9187;BME280;7273;48.902;9.410;2023-12-20T06:47:15;98191.06;;;5.34;98.35
9187;BME280;7273;48.902;9.410;2023-12-20T06:49:40;98192.97;;;5.33;99.04
9187;BME280;7273;48.902;9.410;2023-12-20T06:52:06;98202.63;;;5.34;99.35
9187;BME280;7273;48.902;9.410;2023-12-20T06:54:31;98199.13;;;5.34;99.40
9187;BME280;7273;48.902;9.410;2023-12-20T06:56:59;98196.44;;;5.34;99.39
9187;BME280;7273;48.902;9.410;2023-12-20T06:59:24;98201.91;;;5.39;99.73
9187;BME280;7273;48.902;9.410;2023-12-20T07:01:51;98212.63;;;5.39;99.16
9187;BME280;7273;48.902;9.410;2023-12-20T07:04:16;98202.13;;;5.37;99.56
9187;BME280;7273;48.902;9.410;2023-12-20T07:06:45;98209.94;;;5.39;99.54
9187;BME280;7273;48.902;9.410;2023-12-20T07:09:11;98211.59;;;5.40;99.63
9187;BME280;7273;48.902;9.410;2023-12-20T07:11:38;98219.63;;;5.40;99.14
9187;BME280;7273;48.902;9.410;2023-12-20T07:14:03;98215.88;;;5.41;98.96
9187;BME280;7273;48.902;9.410;2023-12-20T07:16:29;98223.09;;;5.40;98.64
9187;BME280;7273;48.902;9.410;2023-12-20T07:18:54;98219.16;;;5.43;98.49
9187;BME280;7273;48.902;9.410;2023-12-20T07:21:21;98226.13;;;5.44;98.62
9187;BME280;7273;48.902;9.410;2023-12-20T07:23:46;98222.06;;;5.41;98.87
9187;BME280;7273;48.902;9.410;2023-12-20T07:26:12;98233.03;;;5.40;99.79
9187;BME280;7273;48.902;9.410;2023-12-20T07:28:37;98250.84;;;5.46;100.00
9187;BME280;7273;48.902;9.410;2023-12-20T07:31:03;98249.19;;;5.45;99.81
9187;BME280;7273;48.902;9.410;2023-12-20T07:33:28;98239.28;;;5.45;100.00
9187;BME280;7273;48.902;9.410;2023-12-20T07:35:53;98247.91;;;5.47;100.00
9187;BME280;7273;48.902;9.410;2023-12-20T07:38:19;98248.75;;;5.48;100.00
9187;BME280;7273;48.902;9.410;2023-12-20T07:40:44;98247.09;;;5.47;100.00
9187;BME280;7273;48.902;9.410;2023-12-20T07:43:10;98255.63;;;5.44;100.00
9187;BME280;7273;48.902;9.410;2023-12-20T07:45:35;98252.94;;;5.44;100.00
9187;BME280;7273;48.902;9.410;2023-12-20T07:48:00;98253.44;;;5.41;100.00
9187;BME280;7273;48.902;9.410;2023-12-20T07:50:26;98259.63;;;5.41;100.00
9187;BME280;7273;48.902;9.410;2023-12-20T07:52:52;98260.66;;;5.40;100.00
9187;BME280;7273;48.902;9.410;2023-12-20T07:55:18;98257.97;;;5.40;100.00
9187;BME280;7273;48.902;9.410;2023-12-20T07:57:43;98260.88;;;5.39;100.00
9187;BME280;7273;48.902;9.410;2023-12-20T08:00:09;98274.88;;;5.41;100.00
9187;BME280;7273;48.902;9.410;2023-12-20T08:02:35;98275.94;;;5.40;100.00
9187;BME280;7273;48.902;9.410;2023-12-20T08:05:00;98264.63;;;5.38;100.00
9187;BME280;7273;48.902;9.410;2023-12-20T08:07:26;98272.44;;;5.39;100.00
9187;BME280;7273;48.902;9.410;2023-12-20T08:09:51;98269.28;;;5.42;100.00
9187;BME280;7273;48.902;9.410;2023-12-20T08:12:17;98272.44;;;5.39;100.00
9187;BME280;7273;48.902;9.410;2023-12-20T08:14:42;98273.03;;;5.41;100.00
9187;BME280;7273;48.902;9.410;2023-12-20T08:17:08;98276.63;;;5.35;100.00
9187;BME280;7273;48.902;9.410;2023-12-20T08:19:33;98281.31;;;5.40;100.00
9187;BME280;7273;48.902;9.410;2023-12-20T08:21:59;98288.19;;;5.36;100.00
9187;BME280;7273;48.902;9.410;2023-12-20T08:24:24;98293.78;;;5.34;100.00
9187;BME280;7273;48.902;9.410;2023-12-20T08:26:50;98290.75;;;5.31;100.00
9187;BME280;7273;48.902;9.410;2023-12-20T08:29:15;98296.50;;;5.23;99.97
9187;BME280;7273;48.902;9.410;2023-12-20T08:31:41;98298.22;;;5.29;100.00
9187;BME280;7273;48.902;9.410;2023-12-20T08:34:06;98300.94;;;5.17;99.51
9187;BME280;7273;48.902;9.410;2023-12-20T08:36:32;98309.31;;;5.21;99.46
9187;BME280;7273;48.902;9.410;2023-12-20T08:38:57;98305.13;;;5.13;99.12
9187;BME280;7273;48.902;9.410;2023-12-20T08:41:22;98304.91;;;5.15;98.98
9187;BME280;7273;48.902;9.410;2023-12-20T08:43:48;98309.91;;;5.11;98.48
9187;BME280;7273;48.902;9.410;2023-12-20T08:46:14;98315.38;;;5.16;98.53
9187;BME280;7273;48.902;9.410;2023-12-20T08:48:39;98313.78;;;5.15;98.23
9187;BME280;7273;48.902;9.410;2023-12-20T08:51:05;98321.56;;;5.17;98.13
9187;BME280;7273;48.902;9.410;2023-12-20T08:53:33;98315.03;;;5.13;98.25
9187;BME280;7273;48.902;9.410;2023-12-20T08:55:59;98309.91;;;5.11;97.71
9187;BME280;7273;48.902;9.410;2023-12-20T08:58:27;98301.28;;;5.21;97.90
9187;BME280;7273;48.902;9.410;2023-12-20T09:00:53;98309.19;;;5.27;97.67
9187;BME280;7273;48.902;9.410;2023-12-20T09:03:18;98305.72;;;5.27;97.29
9187;BME280;7273;48.902;9.410;2023-12-20T09:05:43;98304.66;;;5.28;96.61
9187;BME280;7273;48.902;9.410;2023-12-20T09:08:09;98299.63;;;5.31;96.34
9187;BME280;7273;48.902;9.410;2023-12-20T09:10:36;98299.25;;;5.39;96.05
9187;BME280;7273;48.902;9.410;2023-12-20T09:13:02;98289.63;;;5.55;96.17
9187;BME280;7273;48.902;9.410;2023-12-20T09:15:28;98299.91;;;5.58;95.78
9187;BME280;7273;48.902;9.410;2023-12-20T09:17:55;98301.97;;;5.68;95.44
9187;BME280;7273;48.902;9.410;2023-12-20T09:20:21;98312.44;;;5.69;94.96
9187;BME280;7273;48.902;9.410;2023-12-20T09:22:48;98298.34;;;5.62;94.40
9187;BME280;7273;48.902;9.410;2023-12-20T09:25:14;98303.19;;;5.77;94.34
9187;BME280;7273;48.902;9.410;2023-12-20T09:27:41;98305.06;;;5.76;94.54
9187;BME280;7273;48.902;9.410;2023-12-20T09:30:07;98313.50;;;5.68;94.18
9187;BME280;7273;48.902;9.410;2023-12-20T09:32:32;98311.28;;;5.65;94.00
9187;BME280;7273;48.902;9.410;2023-12-20T09:34:58;98309.44;;;5.66;94.19
9187;BME280;7273;48.902;9.410;2023-12-20T09:37:26;98311.44;;;5.59;94.02
9187;BME280;7273;48.902;9.410;2023-12-20T09:39:52;98307.97;;;5.58;93.93
9187;BME280;7273;48.902;9.410;2023-12-20T09:42:24;98318.44;;;5.60;93.75
9187;BME280;7273;48.902;9.410;2023-12-20T09:44:52;98312.25;;;5.59;93.62
9187;BME280;7273;48.902;9.410;2023-12-20T09:47:20;98321.38;;;5.58;93.53
9187;BME280;7273;48.902;9.410;2023-12-20T09:49:48;98327.19;;;5.55;92.35
9187;BME280;7273;48.902;9.410;2023-12-20T09:52:15;98334.84;;;5.63;92.38
9187;BME280;7273;48.902;9.410;2023-12-20T09:54:43;98331.63;;;5.61;92.21
9187;BME280;7273;48.902;9.410;2023-12-20T09:57:09;98315.53;;;5.61;91.96
9187;BME280;7273;48.902;9.410;2023-12-20T09:59:35;98323.81;;;5.60;91.69
9187;BME280;7273;48.902;9.410;2023-12-20T10:02:01;98329.41;;;5.58;91.32
9187;BME280;7273;48.902;9.410;2023-12-20T10:04:32;98324.34;;;5.62;89.95
9187;BME280;7273;48.902;9.410;2023-12-20T10:07:02;98325.28;;;5.67;89.92
9187;BME280;7273;48.902;9.410;2023-12-20T10:09:31;98323.09;;;5.64;90.54
9187;BME280;7273;48.902;9.410;2023-12-20T10:11:57;98321.53;;;5.68;90.30
9187;BME280;7273;48.902;9.410;2023-12-20T10:14:23;98313.72;;;5.67;90.59
9187;BME280;7273;48.902;9.410;2023-12-20T10:16:49;98319.34;;;5.65;89.11
9187;BME280;7273;48.902;9.410;2023-12-20T10:19:16;98319.19;;;5.72;87.89
9187;BME280;7273;48.902;9.410;2023-12-20T10:21:42;98314.66;;;5.72;87.53
9187;BME280;7273;48.902;9.410;2023-12-20T10:24:08;98314.41;;;5.74;87.88
9187;BME280;7273;48.902;9.410;2023-12-20T10:26:33;98308.09;;;5.80;87.45
9187;BME280;7273;48.902;9.410;2023-12-20T10:29:02;98300.84;;;5.80;86.82
9187;BME280;7273;48.902;9.410;2023-12-20T10:31:33;98296.69;;;5.84;86.15
9187;BME280;7273;48.902;9.410;2023-12-20T10:34:01;98292.34;;;5.83;84.74
9187;BME280;7273;48.902;9.410;2023-12-20T10:36:29;98296.78;;;5.89;84.02
9187;BME280;7273;48.902;9.410;2023-12-20T10:38:55;98294.66;;;5.91;82.67
9187;BME280;7273;48.902;9.410;2023-12-20T10:41:30;98298.97;;;5.92;82.95
9187;BME280;7273;48.902;9.410;2023-12-20T10:44:00;98297.31;;;5.91;84.08
9187;BME280;7273;48.902;9.410;2023-12-20T10:46:27;98295.22;;;5.93;83.01
9187;BME280;7273;48.902;9.410;2023-12-20T10:48:56;98288.03;;;5.82;81.46
9187;BME280;7273;48.902;9.410;2023-12-20T10:51:23;98289.19;;;5.86;82.41
9187;BME280;7273;48.902;9.410;2023-12-20T10:53:50;98286.38;;;5.81;82.26
9187;BME280;7273;48.902;9.410;2023-12-20T10:56:19;98290.84;;;5.76;81.94
9187;BME280;7273;48.902;9.410;2023-12-20T10:58:46;98283.84;;;5.75;83.19
9187;BME280;7273;48.902;9.410;2023-12-20T11:01:14;98285.28;;;5.66;82.53
9187;BME280;7273;48.902;9.410;2023-12-20T11:03:53;98283.56;;;5.60;82.00
9187;BME280;7273;48.902;9.410;2023-12-20T11:09:06;98286.50;;;5.58;78.92
9187;BME280;7273;48.902;9.410;2023-12-20T11:12:09;98276.91;;;5.62;80.10
9187;BME280;7273;48.902;9.410;2023-12-20T11:14:42;98288.78;;;5.66;79.17
9187;BME280;7273;48.902;9.410;2023-12-20T11:17:11;98275.47;;;5.71;78.15
9187;BME280;7273;48.902;9.410;2023-12-20T11:22:27;98268.31;;;5.77;78.62
9187;BME280;7273;48.902;9.410;2023-12-20T11:24:53;98272.94;;;5.81;79.18
9187;BME280;7273;48.902;9.410;2023-12-20T11:27:19;98266.78;;;5.81;79.74
9187;BME280;7273;48.902;9.410;2023-12-20T11:29:52;98257.91;;;5.80;78.97
9187;BME280;7273;48.902;9.410;2023-12-20T11:35:00;98268.91;;;5.79;76.31
9187;BME280;7273;48.902;9.410;2023-12-20T11:37:36;98271.09;;;5.82;76.74
9187;BME280;7273;48.902;9.410;2023-12-20T11:40:05;98280.59;;;5.84;76.72
9187;BME280;7273;48.902;9.410;2023-12-20T11:42:38;98279.50;;;5.85;77.94
9187;BME280;7273;48.902;9.410;2023-12-20T11:45:05;98279.38;;;5.80;77.33
9187;BME280;7273;48.902;9.410;2023-12-20T11:47:31;98287.91;;;5.77;75.06
9187;BME280;7273;48.902;9.410;2023-12-20T11:49:57;98286.75;;;5.73;75.03
9187;BME280;7273;48.902;9.410;2023-12-20T11:52:22;98281.28;;;5.68;74.84
9187;BME280;7273;48.902;9.410;2023-12-20T11:54:48;98288.56;;;5.68;75.51
9187;BME280;7273;48.902;9.410;2023-12-20T11:57:13;98273.97;;;5.64;75.62
9187;BME280;7273;48.902;9.410;2023-12-20T11:59:39;98275.53;;;5.60;75.08
9187;BME280;7273;48.902;9.410;2023-12-20T12:02:04;98280.66;;;5.61;75.85
9187;BME280;7273;48.902;9.410;2023-12-20T12:04:29;98270.84;;;5.55;76.14
9187;BME280;7273;48.902;9.410;2023-12-20T12:06:55;98268.50;;;5.59;76.88
9187;BME280;7273;48.902;9.410;2023-12-20T12:09:20;98267.63;;;5.53;77.98
9187;BME280;7273;48.902;9.410;2023-12-20T12:11:46;98270.31;;;5.53;75.61
9187;BME280;7273;48.902;9.410;2023-12-20T12:14:11;98258.75;;;5.53;77.12
9187;BME280;7273;48.902;9.410;2023-12-20T12:16:37;98260.84;;;5.50;76.16
9187;BME280;7273;48.902;9.410;2023-12-20T12:19:02;98258.75;;;5.53;77.27
9187;BME280;7273;48.902;9.410;2023-12-20T12:21:29;98255.00;;;5.53;77.83
9187;BME280;7273;48.902;9.410;2023-12-20T12:24:06;98252.06;;;5.55;78.39
9187;BME280;7273;48.902;9.410;2023-12-20T12:26:31;98240.06;;;5.58;79.16
9187;BME280;7273;48.902;9.410;2023-12-20T12:28:57;98247.06;;;5.59;77.90
9187;BME280;7273;48.902;9.410;2023-12-20T12:31:23;98240.97;;;5.63;79.11
9187;BME280;7273;48.902;9.410;2023-12-20T12:33:50;98240.75;;;5.65;77.73
9187;BME280;7273;48.902;9.410;2023-12-20T12:36:16;98235.69;;;5.68;78.85
9187;BME280;7273;48.902;9.410;2023-12-20T12:38:43;98234.16;;;5.72;79.39
9187;BME280;7273;48.902;9.410;2023-12-20T12:41:08;98242.78;;;5.74;80.15
9187;BME280;7273;48.902;9.410;2023-12-20T12:43:35;98236.38;;;5.75;78.67
9187;BME280;7273;48.902;9.410;2023-12-20T12:46:00;98234.84;;;5.79;79.12
9187;BME280;7273;48.902;9.410;2023-12-20T12:48:26;98238.56;;;5.78;80.21
9187;BME280;7273;48.902;9.410;2023-12-20T12:50:53;98230.75;;;5.77;78.89
9187;BME280;7273;48.902;9.410;2023-12-20T12:53:19;98232.69;;;5.81;79.54
9187;BME280;7273;48.902;9.410;2023-12-20T12:55:45;98235.63;;;5.80;79.70
9187;BME280;7273;48.902;9.410;2023-12-20T12:58:11;98242.56;;;5.76;78.46
9187;BME280;7273;48.902;9.410;2023-12-20T13:00:36;98236.94;;;5.77;79.28
9187;BME280;7273;48.902;9.410;2023-12-20T13:03:02;98243.69;;;5.80;80.41
9187;BME280;7273;48.902;9.410;2023-12-20T13:05:28;98240.44;;;5.78;80.38
9187;BME280;7273;48.902;9.410;2023-12-20T13:07:54;98243.13;;;5.78;79.18
9187;BME280;7273;48.902;9.410;2023-12-20T13:10:20;98240.22;;;5.79;78.33
9187;BME280;7273;48.902;9.410;2023-12-20T13:12:45;98229.47;;;5.79;78.87
9187;BME280;7273;48.902;9.410;2023-12-20T13:15:10;98235.28;;;5.76;77.71
9187;BME280;7273;48.902;9.410;2023-12-20T13:17:36;98236.13;;;5.77;77.86
9187;BME280;7273;48.902;9.410;2023-12-20T13:20:02;98239.63;;;5.77;77.78
9187;BME280;7273;48.902;9.410;2023-12-20T13:22:28;98235.63;;;5.80;77.64
9187;BME280;7273;48.902;9.410;2023-12-20T13:24:54;98243.91;;;5.78;77.18
9187;BME280;7273;48.902;9.410;2023-12-20T13:27:19;98241.81;;;5.80;76.66
9187;BME280;7273;48.902;9.410;2023-12-20T13:29:44;98244.25;;;5.82;76.90
9187;BME280;7273;48.902;9.410;2023-12-20T13:32:10;98237.75;;;5.78;75.42
9187;BME280;7273;48.902;9.410;2023-12-20T13:34:35;98240.53;;;5.83;75.95